sensor_id;sensor_type;location;lat;lon;timestamp;P1;durP1;ratioP1;P2;durP2;ratioP2
5587;SDS011;2816;49.778;9.986;2022-11-23T00:02:19;3.80;;;2.40;;
5587;SDS011;2816;49.778;9.986;2022-11-23T00:04:46;4.00;;;2.17;;
5587;SDS011;2816;49.778;9.986;2022-11-23T00:07:13;2.70;;;2.10;;
5587;SDS011;2816;49.778;9.986;2022-11-23T00:09:40;4.50;;;2.20;;
5587;SDS011;2816;49.778;9.986;2022-11-23T00:12:07;2.40;;;2.13;;
5587;SDS011;2816;49.778;9.986;2022-11-23T00:14:34;3.50;;;2.40;;
5587;SDS011;2816;49.778;9.986;2022-11-23T00:17:01;3.33;;;1.73;;
5587;SDS011;2816;49.778;9.986;2022-11-23T00:19:30;2.00;;;1.80;;
5587;SDS011;2816;49.778;9.986;2022-11-23T00:21:57;2.37;;;2.10;;
5587;SDS011;2816;49.778;9.986;2022-11-23T00:24:25;3.23;;;2.13;;
5587;SDS011;2816;49.778;9.986;2022-11-23T00:26:52;2.30;;;1.90;;
5587;SDS011;2816;49.778;9.986;2022-11-23T00:29:19;4.00;;;1.90;;
5587;SDS011;2816;49.778;9.986;2022-11-23T00:31:45;1.90;;;1.80;;
5587;SDS011;2816;49.778;9.986;2022-11-23T00:34:12;2.90;;;1.70;;
5587;SDS011;2816;49.778;9.986;2022-11-23T00:36:42;3.07;;;1.80;;
5587;SDS011;2816;49.778;9.986;2022-11-23T00:39:09;3.10;;;1.80;;
5587;SDS011;2816;49.778;9.986;2022-11-23T00:41:37;2.60;;;1.73;;
5587;SDS011;2816;49.778;9.986;2022-11-23T00:44:03;4.73;;;2.00;;
5587;SDS011;2816;49.778;9.986;2022-11-23T00:46:30;2.30;;;1.60;;
5587;SDS011;2816;49.778;9.986;2022-11-23T00:48:57;4.93;;;2.27;;
5587;SDS011;2816;49.778;9.986;2022-11-23T00:51:26;6.30;;;2.20;;
5587;SDS011;2816;49.778;9.986;2022-11-23T00:53:55;3.77;;;1.90;;
5587;SDS011;2816;49.778;9.986;2022-11-23T00:56:23;3.50;;;2.10;;
5587;SDS011;2816;49.778;9.986;2022-11-23T00:58:51;4.50;;;1.93;;
5587;SDS011;2816;49.778;9.986;2022-11-23T01:01:20;3.73;;;1.90;;
5587;SDS011;2816;49.778;9.986;2022-11-23T01:03:50;7.80;;;2.07;;
5587;SDS011;2816;49.778;9.986;2022-11-23T01:06:19;15.50;;;2.90;;
5587;SDS011;2816;49.778;9.986;2022-11-23T01:08:48;3.83;;;2.30;;
5587;SDS011;2816;49.778;9.986;2022-11-23T01:11:18;4.23;;;2.00;;
5587;SDS011;2816;49.778;9.986;2022-11-23T01:13:46;2.90;;;1.67;;
5587;SDS011;2816;49.778;9.986;2022-11-23T01:16:13;4.37;;;1.47;;
5587;SDS011;2816;49.778;9.986;2022-11-23T01:18:42;5.10;;;2.00;;
5587;SDS011;2816;49.778;9.986;2022-11-23T01:21:09;3.73;;;1.80;;
5587;SDS011;2816;49.778;9.986;2022-11-23T01:23:36;4.10;;;1.80;;
5587;SDS011;2816;49.778;9.986;2022-11-23T01:26:05;4.97;;;1.97;;
5587;SDS011;2816;49.778;9.986;2022-11-23T01:28:36;4.20;;;1.70;;
5587;SDS011;2816;49.778;9.986;2022-11-23T01:31:05;5.13;;;2.00;;
5587;SDS011;2816;49.778;9.986;2022-11-23T01:33:34;5.27;;;2.23;;
5587;SDS011;2816;49.778;9.986;2022-11-23T01:36:07;5.17;;;1.80;;
5587;SDS011;2816;49.778;9.986;2022-11-23T01:38:35;3.13;;;1.67;;
5587;SDS011;2816;49.778;9.986;2022-11-23T01:41:03;3.20;;;1.90;;
5587;SDS011;2816;49.778;9.986;2022-11-23T01:43:30;3.50;;;1.90;;
5587;SDS011;2816;49.778;9.986;2022-11-23T01:45:59;2.40;;;2.00;;
5587;SDS011;2816;49.778;9.986;2022-11-23T01:48:27;4.57;;;2.13;;
5587;SDS011;2816;49.778;9.986;2022-11-23T01:50:57;4.97;;;2.50;;
5587;SDS011;2816;49.778;9.986;2022-11-23T01:53:27;2.23;;;1.93;;
5587;SDS011;2816;49.778;9.986;2022-11-23T01:55:56;4.60;;;1.87;;
5587;SDS011;2816;49.778;9.986;2022-11-23T01:58:26;5.90;;;2.13;;
5587;SDS011;2816;49.778;9.986;2022-11-23T02:00:56;2.73;;;1.80;;
5587;SDS011;2816;49.778;9.986;2022-11-23T02:03:24;2.53;;;1.90;;
5587;SDS011;2816;49.778;9.986;2022-11-23T02:05:54;3.20;;;1.87;;
5587;SDS011;2816;49.778;9.986;2022-11-23T02:08:26;5.40;;;2.00;;
5587;SDS011;2816;49.778;9.986;2022-11-23T02:10:55;4.70;;;2.13;;
5587;SDS011;2816;49.778;9.986;2022-11-23T02:13:23;4.33;;;2.30;;
5587;SDS011;2816;49.778;9.986;2022-11-23T02:15:51;4.67;;;2.20;;
5587;SDS011;2816;49.778;9.986;2022-11-23T02:18:21;3.83;;;2.53;;
5587;SDS011;2816;49.778;9.986;2022-11-23T02:20:50;4.97;;;2.30;;
5587;SDS011;2816;49.778;9.986;2022-11-23T02:23:21;4.10;;;1.87;;
5587;SDS011;2816;49.778;9.986;2022-11-23T02:26:00;3.23;;;1.93;;
5587;SDS011;2816;49.778;9.986;2022-11-23T02:28:32;3.20;;;2.10;;
5587;SDS011;2816;49.778;9.986;2022-11-23T02:31:01;5.77;;;1.60;;
5587;SDS011;2816;49.778;9.986;2022-11-23T02:33:28;6.30;;;1.77;;
5587;SDS011;2816;49.778;9.986;2022-11-23T02:35:56;3.80;;;1.70;;
5587;SDS011;2816;49.778;9.986;2022-11-23T02:38:24;6.60;;;1.83;;
5587;SDS011;2816;49.778;9.986;2022-11-23T02:40:55;2.27;;;1.80;;
5587;SDS011;2816;49.778;9.986;2022-11-23T02:43:24;3.23;;;1.73;;
5587;SDS011;2816;49.778;9.986;2022-11-23T02:45:52;2.97;;;1.70;;
5587;SDS011;2816;49.778;9.986;2022-11-23T02:48:21;5.23;;;1.90;;
5587;SDS011;2816;49.778;9.986;2022-11-23T02:50:47;3.60;;;1.73;;
5587;SDS011;2816;49.778;9.986;2022-11-23T02:53:14;4.43;;;1.83;;
5587;SDS011;2816;49.778;9.986;2022-11-23T02:55:41;3.50;;;1.60;;
5587;SDS011;2816;49.778;9.986;2022-11-23T02:58:08;3.07;;;1.60;;
5587;SDS011;2816;49.778;9.986;2022-11-23T03:00:37;4.40;;;1.97;;
5587;SDS011;2816;49.778;9.986;2022-11-23T03:03:04;2.87;;;1.87;;
5587;SDS011;2816;49.778;9.986;2022-11-23T03:05:31;4.50;;;1.40;;
5587;SDS011;2816;49.778;9.986;2022-11-23T03:07:58;3.13;;;1.60;;
5587;SDS011;2816;49.778;9.986;2022-11-23T03:10:26;3.93;;;1.83;;
5587;SDS011;2816;49.778;9.986;2022-11-23T03:12:54;2.93;;;2.00;;
5587;SDS011;2816;49.778;9.986;2022-11-23T03:15:21;2.50;;;1.63;;
5587;SDS011;2816;49.778;9.986;2022-11-23T03:17:50;2.43;;;1.80;;
5587;SDS011;2816;49.778;9.986;2022-11-23T03:20:17;6.97;;;2.13;;
5587;SDS011;2816;49.778;9.986;2022-11-23T03:22:46;5.03;;;1.80;;
5587;SDS011;2816;49.778;9.986;2022-11-23T03:25:13;2.90;;;1.70;;
5587;SDS011;2816;49.778;9.986;2022-11-23T03:27:40;4.20;;;1.47;;
5587;SDS011;2816;49.778;9.986;2022-11-23T03:30:07;3.47;;;1.80;;
5587;SDS011;2816;49.778;9.986;2022-11-23T03:32:35;5.27;;;1.87;;
5587;SDS011;2816;49.778;9.986;2022-11-23T03:35:04;5.13;;;1.80;;
5587;SDS011;2816;49.778;9.986;2022-11-23T03:37:32;5.53;;;2.43;;
5587;SDS011;2816;49.778;9.986;2022-11-23T03:39:59;3.47;;;1.57;;
5587;SDS011;2816;49.778;9.986;2022-11-23T03:42:26;3.17;;;2.20;;
5587;SDS011;2816;49.778;9.986;2022-11-23T03:44:53;3.33;;;1.70;;
5587;SDS011;2816;49.778;9.986;2022-11-23T03:47:20;3.77;;;1.87;;
5587;SDS011;2816;49.778;9.986;2022-11-23T03:49:47;2.20;;;1.70;;
5587;SDS011;2816;49.778;9.986;2022-11-23T03:52:16;5.30;;;1.70;;
5587;SDS011;2816;49.778;9.986;2022-11-23T03:54:43;3.23;;;1.60;;
5587;SDS011;2816;49.778;9.986;2022-11-23T03:57:11;2.97;;;2.07;;
5587;SDS011;2816;49.778;9.986;2022-11-23T03:59:38;2.20;;;1.83;;
5587;SDS011;2816;49.778;9.986;2022-11-23T04:02:04;5.40;;;2.20;;
5587;SDS011;2816;49.778;9.986;2022-11-23T04:04:32;1.90;;;1.50;;
5587;SDS011;2816;49.778;9.986;2022-11-23T04:07:00;5.97;;;2.13;;
5587;SDS011;2816;49.778;9.986;2022-11-23T04:09:28;3.43;;;1.77;;
5587;SDS011;2816;49.778;9.986;2022-11-23T04:11:55;2.10;;;1.83;;
5587;SDS011;2816;49.778;9.986;2022-11-23T04:14:22;4.67;;;1.90;;
5587;SDS011;2816;49.778;9.986;2022-11-23T04:16:49;5.13;;;2.17;;
5587;SDS011;2816;49.778;9.986;2022-11-23T04:19:16;3.37;;;2.17;;
5587;SDS011;2816;49.778;9.986;2022-11-23T04:21:42;3.90;;;1.90;;
5587;SDS011;2816;49.778;9.986;2022-11-23T04:24:09;5.80;;;2.23;;
5587;SDS011;2816;49.778;9.986;2022-11-23T04:26:38;5.20;;;1.80;;
5587;SDS011;2816;49.778;9.986;2022-11-23T04:29:05;3.57;;;1.60;;
5587;SDS011;2816;49.778;9.986;2022-11-23T04:31:32;9.27;;;2.00;;
5587;SDS011;2816;49.778;9.986;2022-11-23T04:33:59;5.10;;;1.90;;
5587;SDS011;2816;49.778;9.986;2022-11-23T04:36:26;2.83;;;1.70;;
5587;SDS011;2816;49.778;9.986;2022-11-23T04:38:53;3.43;;;1.63;;
5587;SDS011;2816;49.778;9.986;2022-11-23T04:41:20;3.00;;;1.63;;
5587;SDS011;2816;49.778;9.986;2022-11-23T04:43:49;3.70;;;2.23;;
5587;SDS011;2816;49.778;9.986;2022-11-23T04:46:17;4.90;;;1.90;;
5587;SDS011;2816;49.778;9.986;2022-11-23T04:48:44;4.90;;;1.80;;
5587;SDS011;2816;49.778;9.986;2022-11-23T04:51:11;3.90;;;2.10;;
5587;SDS011;2816;49.778;9.986;2022-11-23T04:53:38;5.30;;;2.10;;
5587;SDS011;2816;49.778;9.986;2022-11-23T04:56:06;2.60;;;1.37;;
5587;SDS011;2816;49.778;9.986;2022-11-23T04:58:33;5.63;;;2.00;;
5587;SDS011;2816;49.778;9.986;2022-11-23T05:01:02;5.43;;;2.07;;
5587;SDS011;2816;49.778;9.986;2022-11-23T05:03:29;6.63;;;1.87;;
5587;SDS011;2816;49.778;9.986;2022-11-23T05:05:59;3.53;;;2.20;;
5587;SDS011;2816;49.778;9.986;2022-11-23T05:08:28;3.23;;;1.90;;
5587;SDS011;2816;49.778;9.986;2022-11-23T05:10:55;5.07;;;2.10;;
5587;SDS011;2816;49.778;9.986;2022-11-23T05:13:23;5.80;;;2.23;;
5587;SDS011;2816;49.778;9.986;2022-11-23T05:15:50;7.40;;;1.73;;
5587;SDS011;2816;49.778;9.986;2022-11-23T05:18:18;9.27;;;2.40;;
5587;SDS011;2816;49.778;9.986;2022-11-23T05:20:45;4.87;;;2.13;;
5587;SDS011;2816;49.778;9.986;2022-11-23T05:23:12;9.67;;;2.23;;
5587;SDS011;2816;49.778;9.986;2022-11-23T05:25:39;7.80;;;2.00;;
5587;SDS011;2816;49.778;9.986;2022-11-23T05:28:06;8.60;;;2.00;;
5587;SDS011;2816;49.778;9.986;2022-11-23T05:30:34;6.93;;;1.90;;
5587;SDS011;2816;49.778;9.986;2022-11-23T05:33:01;3.63;;;2.10;;
5587;SDS011;2816;49.778;9.986;2022-11-23T05:35:30;5.00;;;2.00;;
5587;SDS011;2816;49.778;9.986;2022-11-23T05:37:57;7.10;;;2.07;;
5587;SDS011;2816;49.778;9.986;2022-11-23T05:40:24;4.00;;;1.90;;
5587;SDS011;2816;49.778;9.986;2022-11-23T05:42:53;5.00;;;1.80;;
5587;SDS011;2816;49.778;9.986;2022-11-23T05:45:21;8.90;;;1.80;;
5587;SDS011;2816;49.778;9.986;2022-11-23T05:47:50;6.17;;;1.87;;
5587;SDS011;2816;49.778;9.986;2022-11-23T05:50:17;7.00;;;2.37;;
5587;SDS011;2816;49.778;9.986;2022-11-23T05:52:46;3.17;;;2.13;;
5587;SDS011;2816;49.778;9.986;2022-11-23T05:55:13;10.07;;;2.50;;
5587;SDS011;2816;49.778;9.986;2022-11-23T05:57:40;2.67;;;2.30;;
5587;SDS011;2816;49.778;9.986;2022-11-23T06:00:08;5.40;;;2.10;;
5587;SDS011;2816;49.778;9.986;2022-11-23T06:02:36;4.63;;;1.83;;
5587;SDS011;2816;49.778;9.986;2022-11-23T06:05:05;4.90;;;2.30;;
5587;SDS011;2816;49.778;9.986;2022-11-23T06:07:33;2.97;;;1.80;;
5587;SDS011;2816;49.778;9.986;2022-11-23T06:10:02;4.80;;;2.00;;
5587;SDS011;2816;49.778;9.986;2022-11-23T06:12:30;3.60;;;2.00;;
5587;SDS011;2816;49.778;9.986;2022-11-23T06:14:57;3.90;;;2.33;;
5587;SDS011;2816;49.778;9.986;2022-11-23T06:17:24;6.47;;;1.90;;
5587;SDS011;2816;49.778;9.986;2022-11-23T06:19:50;4.20;;;2.30;;
5587;SDS011;2816;49.778;9.986;2022-11-23T06:22:17;4.53;;;2.30;;
5587;SDS011;2816;49.778;9.986;2022-11-23T06:24:44;5.50;;;2.10;;
5587;SDS011;2816;49.778;9.986;2022-11-23T06:27:12;3.47;;;2.00;;
5587;SDS011;2816;49.778;9.986;2022-11-23T06:29:42;9.00;;;2.33;;
5587;SDS011;2816;49.778;9.986;2022-11-23T06:32:10;7.03;;;2.50;;
5587;SDS011;2816;49.778;9.986;2022-11-23T06:34:37;3.97;;;2.67;;
5587;SDS011;2816;49.778;9.986;2022-11-23T06:37:04;4.97;;;2.53;;
5587;SDS011;2816;49.778;9.986;2022-11-23T06:39:31;3.90;;;2.33;;
5587;SDS011;2816;49.778;9.986;2022-11-23T06:41:59;5.63;;;2.77;;
5587;SDS011;2816;49.778;9.986;2022-11-23T06:44:27;5.83;;;2.10;;
5587;SDS011;2816;49.778;9.986;2022-11-23T06:46:55;5.17;;;2.10;;
5587;SDS011;2816;49.778;9.986;2022-11-23T06:49:22;6.30;;;2.20;;
5587;SDS011;2816;49.778;9.986;2022-11-23T06:51:50;5.17;;;2.50;;
5587;SDS011;2816;49.778;9.986;2022-11-23T06:54:17;16.87;;;5.47;;
5587;SDS011;2816;49.778;9.986;2022-11-23T06:56:45;5.33;;;2.83;;
5587;SDS011;2816;49.778;9.986;2022-11-23T06:59:12;5.10;;;2.20;;
5587;SDS011;2816;49.778;9.986;2022-11-23T07:01:41;4.07;;;3.00;;
5587;SDS011;2816;49.778;9.986;2022-11-23T07:04:08;4.20;;;2.50;;
5587;SDS011;2816;49.778;9.986;2022-11-23T07:06:37;7.43;;;2.77;;
5587;SDS011;2816;49.778;9.986;2022-11-23T07:09:05;8.53;;;2.87;;
5587;SDS011;2816;49.778;9.986;2022-11-23T07:11:33;3.60;;;2.10;;
5587;SDS011;2816;49.778;9.986;2022-11-23T07:14:00;6.03;;;2.30;;
5587;SDS011;2816;49.778;9.986;2022-11-23T07:16:27;6.43;;;3.30;;
5587;SDS011;2816;49.778;9.986;2022-11-23T07:18:56;6.47;;;3.30;;
5587;SDS011;2816;49.778;9.986;2022-11-23T07:21:23;3.80;;;2.37;;
5587;SDS011;2816;49.778;9.986;2022-11-23T07:23:50;8.83;;;2.90;;
5587;SDS011;2816;49.778;9.986;2022-11-23T07:26:17;7.23;;;3.73;;
5587;SDS011;2816;49.778;9.986;2022-11-23T07:28:44;4.70;;;2.67;;
5587;SDS011;2816;49.778;9.986;2022-11-23T07:31:10;4.43;;;2.93;;
5587;SDS011;2816;49.778;9.986;2022-11-23T07:33:42;7.50;;;2.90;;
5587;SDS011;2816;49.778;9.986;2022-11-23T07:36:10;9.60;;;2.30;;
5587;SDS011;2816;49.778;9.986;2022-11-23T07:38:38;6.10;;;2.80;;
5587;SDS011;2816;49.778;9.986;2022-11-23T07:41:05;7.90;;;3.83;;
5587;SDS011;2816;49.778;9.986;2022-11-23T07:43:32;8.17;;;3.70;;
5587;SDS011;2816;49.778;9.986;2022-11-23T07:45:59;5.43;;;4.17;;
5587;SDS011;2816;49.778;9.986;2022-11-23T07:48:26;8.90;;;3.33;;
5587;SDS011;2816;49.778;9.986;2022-11-23T07:50:53;3.10;;;2.70;;
5587;SDS011;2816;49.778;9.986;2022-11-23T07:53:21;5.90;;;2.47;;
5587;SDS011;2816;49.778;9.986;2022-11-23T07:55:54;4.13;;;2.17;;
5587;SDS011;2816;49.778;9.986;2022-11-23T07:58:22;8.03;;;3.20;;
5587;SDS011;2816;49.778;9.986;2022-11-23T08:00:49;6.27;;;2.33;;
5587;SDS011;2816;49.778;9.986;2022-11-23T08:03:16;4.73;;;2.43;;
5587;SDS011;2816;49.778;9.986;2022-11-23T08:05:43;15.63;;;2.70;;
5587;SDS011;2816;49.778;9.986;2022-11-23T08:08:11;8.50;;;3.10;;
5587;SDS011;2816;49.778;9.986;2022-11-23T08:10:39;6.00;;;2.80;;
5587;SDS011;2816;49.778;9.986;2022-11-23T08:13:06;8.30;;;2.90;;
5587;SDS011;2816;49.778;9.986;2022-11-23T08:15:34;6.40;;;2.97;;
5587;SDS011;2816;49.778;9.986;2022-11-23T08:18:02;5.73;;;2.67;;
5587;SDS011;2816;49.778;9.986;2022-11-23T08:20:29;4.90;;;2.60;;
5587;SDS011;2816;49.778;9.986;2022-11-23T08:22:57;7.33;;;2.60;;
5587;SDS011;2816;49.778;9.986;2022-11-23T08:25:25;5.63;;;2.97;;
5587;SDS011;2816;49.778;9.986;2022-11-23T08:27:55;9.13;;;3.23;;
5587;SDS011;2816;49.778;9.986;2022-11-23T08:30:22;2.93;;;2.47;;
5587;SDS011;2816;49.778;9.986;2022-11-23T08:32:49;7.00;;;2.70;;
5587;SDS011;2816;49.778;9.986;2022-11-23T08:35:16;6.23;;;2.33;;
5587;SDS011;2816;49.778;9.986;2022-11-23T08:37:43;7.47;;;2.80;;
5587;SDS011;2816;49.778;9.986;2022-11-23T08:40:10;3.90;;;2.60;;
5587;SDS011;2816;49.778;9.986;2022-11-23T08:42:38;4.10;;;2.60;;
5587;SDS011;2816;49.778;9.986;2022-11-23T08:45:08;6.03;;;2.53;;
5587;SDS011;2816;49.778;9.986;2022-11-23T08:47:36;6.33;;;2.37;;
5587;SDS011;2816;49.778;9.986;2022-11-23T08:50:03;7.47;;;2.40;;
5587;SDS011;2816;49.778;9.986;2022-11-23T08:52:30;5.50;;;2.80;;
5587;SDS011;2816;49.778;9.986;2022-11-23T08:54:57;3.07;;;2.40;;
5587;SDS011;2816;49.778;9.986;2022-11-23T08:57:26;4.03;;;2.40;;
5587;SDS011;2816;49.778;9.986;2022-11-23T08:59:53;4.70;;;2.63;;
5587;SDS011;2816;49.778;9.986;2022-11-23T09:02:22;8.70;;;2.80;;
5587;SDS011;2816;49.778;9.986;2022-11-23T09:04:49;3.27;;;2.37;;
5587;SDS011;2816;49.778;9.986;2022-11-23T09:07:16;4.70;;;2.60;;
5587;SDS011;2816;49.778;9.986;2022-11-23T09:09:43;5.80;;;2.63;;
5587;SDS011;2816;49.778;9.986;2022-11-23T09:12:10;4.10;;;2.20;;
5587;SDS011;2816;49.778;9.986;2022-11-23T09:14:37;3.63;;;2.60;;
5587;SDS011;2816;49.778;9.986;2022-11-23T09:17:04;5.43;;;3.03;;
5587;SDS011;2816;49.778;9.986;2022-11-23T09:19:32;6.27;;;2.50;;
5587;SDS011;2816;49.778;9.986;2022-11-23T09:21:59;10.60;;;3.40;;
5587;SDS011;2816;49.778;9.986;2022-11-23T09:24:26;6.37;;;3.33;;
5587;SDS011;2816;49.778;9.986;2022-11-23T09:26:54;6.77;;;3.40;;
5587;SDS011;2816;49.778;9.986;2022-11-23T09:29:22;10.17;;;3.80;;
5587;SDS011;2816;49.778;9.986;2022-11-23T09:31:50;3.17;;;2.23;;
5587;SDS011;2816;49.778;9.986;2022-11-23T09:34:18;7.93;;;3.53;;
5587;SDS011;2816;49.778;9.986;2022-11-23T09:36:46;8.70;;;3.10;;
5587;SDS011;2816;49.778;9.986;2022-11-23T09:39:13;7.43;;;3.33;;
5587;SDS011;2816;49.778;9.986;2022-11-23T09:41:50;6.07;;;2.83;;
5587;SDS011;2816;49.778;9.986;2022-11-23T09:44:40;7.00;;;3.23;;
5587;SDS011;2816;49.778;9.986;2022-11-23T09:47:23;6.03;;;2.87;;
5587;SDS011;2816;49.778;9.986;2022-11-23T09:50:07;10.27;;;2.80;;
5587;SDS011;2816;49.778;9.986;2022-11-23T09:52:42;9.53;;;2.80;;
5587;SDS011;2816;49.778;9.986;2022-11-23T09:55:14;5.67;;;2.80;;
5587;SDS011;2816;49.778;9.986;2022-11-23T09:57:46;7.97;;;3.00;;
5587;SDS011;2816;49.778;9.986;2022-11-23T10:00:17;5.73;;;2.30;;
5587;SDS011;2816;49.778;9.986;2022-11-23T10:02:47;7.20;;;2.50;;
5587;SDS011;2816;49.778;9.986;2022-11-23T10:05:16;7.07;;;2.77;;
5587;SDS011;2816;49.778;9.986;2022-11-23T10:07:52;10.53;;;2.40;;
5587;SDS011;2816;49.778;9.986;2022-11-23T10:10:32;4.40;;;2.07;;
5587;SDS011;2816;49.778;9.986;2022-11-23T10:13:08;5.43;;;2.90;;
5587;SDS011;2816;49.778;9.986;2022-11-23T10:15:51;7.60;;;2.40;;
5587;SDS011;2816;49.778;9.986;2022-11-23T10:18:29;5.47;;;3.53;;
5587;SDS011;2816;49.778;9.986;2022-11-23T10:21:05;5.60;;;2.60;;
5587;SDS011;2816;49.778;9.986;2022-11-23T10:23:52;6.40;;;2.53;;
5587;SDS011;2816;49.778;9.986;2022-11-23T10:26:20;6.23;;;2.33;;
5587;SDS011;2816;49.778;9.986;2022-11-23T10:28:53;5.33;;;2.30;;
5587;SDS011;2816;49.778;9.986;2022-11-23T10:31:21;5.20;;;2.60;;
5587;SDS011;2816;49.778;9.986;2022-11-23T10:33:52;6.40;;;2.40;;
5587;SDS011;2816;49.778;9.986;2022-11-23T10:36:23;11.17;;;3.00;;
5587;SDS011;2816;49.778;9.986;2022-11-23T10:38:52;7.57;;;2.53;;
5587;SDS011;2816;49.778;9.986;2022-11-23T10:41:23;10.70;;;2.40;;
5587;SDS011;2816;49.778;9.986;2022-11-23T10:43:51;8.93;;;2.90;;
5587;SDS011;2816;49.778;9.986;2022-11-23T10:46:23;7.13;;;2.70;;
5587;SDS011;2816;49.778;9.986;2022-11-23T10:48:54;6.00;;;2.70;;
5587;SDS011;2816;49.778;9.986;2022-11-23T10:51:24;6.23;;;2.23;;
5587;SDS011;2816;49.778;9.986;2022-11-23T10:53:56;11.37;;;2.33;;
5587;SDS011;2816;49.778;9.986;2022-11-23T10:56:26;8.03;;;3.17;;
5587;SDS011;2816;49.778;9.986;2022-11-23T10:58:53;7.27;;;2.43;;
5587;SDS011;2816;49.778;9.986;2022-11-23T11:01:21;5.60;;;2.60;;
5587;SDS011;2816;49.778;9.986;2022-11-23T11:03:49;12.10;;;3.00;;
5587;SDS011;2816;49.778;9.986;2022-11-23T11:06:20;4.70;;;2.10;;
5587;SDS011;2816;49.778;9.986;2022-11-23T11:08:50;6.00;;;2.70;;
5587;SDS011;2816;49.778;9.986;2022-11-23T11:11:27;11.10;;;2.73;;
5587;SDS011;2816;49.778;9.986;2022-11-23T11:14:03;17.53;;;3.70;;
5587;SDS011;2816;49.778;9.986;2022-11-23T11:16:31;4.47;;;2.67;;
5587;SDS011;2816;49.778;9.986;2022-11-23T11:19:00;5.27;;;2.03;;
5587;SDS011;2816;49.778;9.986;2022-11-23T11:21:49;6.27;;;2.77;;
5587;SDS011;2816;49.778;9.986;2022-11-23T11:24:16;16.60;;;2.70;;
5587;SDS011;2816;49.778;9.986;2022-11-23T11:26:48;5.97;;;2.40;;
5587;SDS011;2816;49.778;9.986;2022-11-23T11:29:23;15.23;;;2.73;;
5587;SDS011;2816;49.778;9.986;2022-11-23T11:31:57;8.83;;;2.30;;
5587;SDS011;2816;49.778;9.986;2022-11-23T11:34:28;15.10;;;2.60;;
5587;SDS011;2816;49.778;9.986;2022-11-23T11:37:01;8.70;;;2.40;;
5587;SDS011;2816;49.778;9.986;2022-11-23T11:39:43;6.20;;;2.27;;
5587;SDS011;2816;49.778;9.986;2022-11-23T11:42:17;7.87;;;3.20;;
5587;SDS011;2816;49.778;9.986;2022-11-23T11:44:49;6.97;;;2.90;;
5587;SDS011;2816;49.778;9.986;2022-11-23T11:47:22;5.00;;;2.27;;
5587;SDS011;2816;49.778;9.986;2022-11-23T11:49:54;7.47;;;2.40;;
5587;SDS011;2816;49.778;9.986;2022-11-23T11:52:24;7.60;;;2.17;;
5587;SDS011;2816;49.778;9.986;2022-11-23T11:54:58;6.13;;;2.00;;
5587;SDS011;2816;49.778;9.986;2022-11-23T11:57:33;7.00;;;2.27;;
5587;SDS011;2816;49.778;9.986;2022-11-23T12:00:04;5.57;;;2.27;;
5587;SDS011;2816;49.778;9.986;2022-11-23T12:02:39;10.30;;;2.47;;
5587;SDS011;2816;49.778;9.986;2022-11-23T12:05:15;9.60;;;2.33;;
5587;SDS011;2816;49.778;9.986;2022-11-23T12:07:48;6.40;;;2.77;;
5587;SDS011;2816;49.778;9.986;2022-11-23T12:10:27;9.00;;;2.20;;
5587;SDS011;2816;49.778;9.986;2022-11-23T12:13:03;6.30;;;2.27;;
5587;SDS011;2816;49.778;9.986;2022-11-23T12:15:33;10.07;;;2.87;;
5587;SDS011;2816;49.778;9.986;2022-11-23T12:21:15;8.27;;;2.40;;
5587;SDS011;2816;49.778;9.986;2022-11-23T12:23:53;7.57;;;2.20;;
5587;SDS011;2816;49.778;9.986;2022-11-23T12:26:28;10.20;;;2.37;;
5587;SDS011;2816;49.778;9.986;2022-11-23T12:29:09;9.77;;;3.20;;
5587;SDS011;2816;49.778;9.986;2022-11-23T12:31:53;14.47;;;2.90;;
5587;SDS011;2816;49.778;9.986;2022-11-23T12:34:32;9.00;;;2.20;;
5587;SDS011;2816;49.778;9.986;2022-11-23T12:37:22;9.43;;;1.80;;
5587;SDS011;2816;49.778;9.986;2022-11-23T12:40:22;12.40;;;2.70;;
5587;SDS011;2816;49.778;9.986;2022-11-23T12:43:03;6.50;;;2.00;;
5587;SDS011;2816;49.778;9.986;2022-11-23T12:45:39;2.50;;;1.60;;
5587;SDS011;2816;49.778;9.986;2022-11-23T12:48:28;6.03;;;2.03;;
5587;SDS011;2816;49.778;9.986;2022-11-23T12:51:17;8.57;;;2.63;;
5587;SDS011;2816;49.778;9.986;2022-11-23T12:53:52;6.00;;;1.80;;
5587;SDS011;2816;49.778;9.986;2022-11-23T12:56:39;11.77;;;2.70;;
5587;SDS011;2816;49.778;9.986;2022-11-23T12:59:20;5.57;;;1.80;;
5587;SDS011;2816;49.778;9.986;2022-11-23T13:01:51;7.83;;;2.23;;
5587;SDS011;2816;49.778;9.986;2022-11-23T13:04:28;4.07;;;2.00;;
5587;SDS011;2816;49.778;9.986;2022-11-23T13:10:14;5.20;;;2.10;;
5587;SDS011;2816;49.778;9.986;2022-11-23T13:13:02;8.40;;;1.93;;
5587;SDS011;2816;49.778;9.986;2022-11-23T13:18:53;9.40;;;2.30;;
5587;SDS011;2816;49.778;9.986;2022-11-23T13:21:41;4.67;;;1.43;;
5587;SDS011;2816;49.778;9.986;2022-11-23T13:24:28;5.93;;;2.03;;
5587;SDS011;2816;49.778;9.986;2022-11-23T13:29:55;7.20;;;1.60;;
5587;SDS011;2816;49.778;9.986;2022-11-23T13:32:34;7.60;;;2.10;;
5587;SDS011;2816;49.778;9.986;2022-11-23T13:38:23;6.23;;;1.50;;
5587;SDS011;2816;49.778;9.986;2022-11-23T13:44:22;10.33;;;2.83;;
5587;SDS011;2816;49.778;9.986;2022-11-23T13:47:17;8.10;;;1.83;;
5587;SDS011;2816;49.778;9.986;2022-11-23T13:49:45;4.70;;;1.80;;
5587;SDS011;2816;49.778;9.986;2022-11-23T13:52:29;7.33;;;2.30;;
5587;SDS011;2816;49.778;9.986;2022-11-23T13:55:16;7.37;;;1.73;;
5587;SDS011;2816;49.778;9.986;2022-11-23T14:00:47;6.20;;;1.80;;
5587;SDS011;2816;49.778;9.986;2022-11-23T14:06:21;5.20;;;2.20;;
5587;SDS011;2816;49.778;9.986;2022-11-23T14:08:57;5.30;;;2.00;;
5587;SDS011;2816;49.778;9.986;2022-11-23T14:11:29;6.33;;;1.97;;
5587;SDS011;2816;49.778;9.986;2022-11-23T14:14:05;6.80;;;1.90;;
5587;SDS011;2816;49.778;9.986;2022-11-23T14:17:00;4.90;;;1.50;;
5587;SDS011;2816;49.778;9.986;2022-11-23T14:19:42;18.23;;;2.27;;
5587;SDS011;2816;49.778;9.986;2022-11-23T14:22:30;7.33;;;2.07;;
5587;SDS011;2816;49.778;9.986;2022-11-23T14:25:14;3.57;;;1.70;;
5587;SDS011;2816;49.778;9.986;2022-11-23T14:27:49;12.23;;;3.03;;
5587;SDS011;2816;49.778;9.986;2022-11-23T14:30:34;18.03;;;2.67;;
5587;SDS011;2816;49.778;9.986;2022-11-23T14:33:15;8.10;;;2.27;;
5587;SDS011;2816;49.778;9.986;2022-11-23T14:35:48;3.37;;;1.47;;
5587;SDS011;2816;49.778;9.986;2022-11-23T14:38:30;5.80;;;2.00;;
5587;SDS011;2816;49.778;9.986;2022-11-23T14:41:13;7.77;;;2.70;;
5587;SDS011;2816;49.778;9.986;2022-11-23T14:43:42;5.87;;;1.67;;
5587;SDS011;2816;49.778;9.986;2022-11-23T14:46:15;6.77;;;1.93;;
5587;SDS011;2816;49.778;9.986;2022-11-23T14:48:43;8.20;;;2.10;;
5587;SDS011;2816;49.778;9.986;2022-11-23T14:51:12;16.57;;;3.60;;
5587;SDS011;2816;49.778;9.986;2022-11-23T14:53:41;11.00;;;2.17;;
5587;SDS011;2816;49.778;9.986;2022-11-23T14:56:19;47.73;;;6.00;;
5587;SDS011;2816;49.778;9.986;2022-11-23T14:58:58;6.97;;;2.30;;
5587;SDS011;2816;49.778;9.986;2022-11-23T15:01:28;9.10;;;1.83;;
5587;SDS011;2816;49.778;9.986;2022-11-23T15:03:56;20.90;;;3.00;;
5587;SDS011;2816;49.778;9.986;2022-11-23T15:06:24;13.60;;;3.23;;
5587;SDS011;2816;49.778;9.986;2022-11-23T15:08:56;15.93;;;3.80;;
5587;SDS011;2816;49.778;9.986;2022-11-23T15:11:32;12.33;;;3.40;;
5587;SDS011;2816;49.778;9.986;2022-11-23T15:14:02;12.20;;;2.90;;
5587;SDS011;2816;49.778;9.986;2022-11-23T15:16:41;22.30;;;4.37;;
5587;SDS011;2816;49.778;9.986;2022-11-23T15:19:18;23.77;;;3.30;;
5587;SDS011;2816;49.778;9.986;2022-11-23T15:21:51;11.13;;;3.17;;
5587;SDS011;2816;49.778;9.986;2022-11-23T15:24:19;32.93;;;6.50;;
5587;SDS011;2816;49.778;9.986;2022-11-23T15:26:48;14.73;;;3.03;;
5587;SDS011;2816;49.778;9.986;2022-11-23T15:29:31;16.07;;;3.77;;
5587;SDS011;2816;49.778;9.986;2022-11-23T15:31:59;37.27;;;7.17;;
5587;SDS011;2816;49.778;9.986;2022-11-23T15:34:27;12.70;;;4.07;;
5587;SDS011;2816;49.778;9.986;2022-11-23T15:36:54;21.43;;;5.70;;
5587;SDS011;2816;49.778;9.986;2022-11-23T15:39:22;18.13;;;4.80;;
5587;SDS011;2816;49.778;9.986;2022-11-23T15:41:51;13.00;;;5.10;;
5587;SDS011;2816;49.778;9.986;2022-11-23T15:44:23;21.40;;;6.30;;
5587;SDS011;2816;49.778;9.986;2022-11-23T15:46:51;13.93;;;5.57;;
5587;SDS011;2816;49.778;9.986;2022-11-23T15:49:20;11.37;;;3.40;;
5587;SDS011;2816;49.778;9.986;2022-11-23T15:51:47;13.17;;;4.50;;
5587;SDS011;2816;49.778;9.986;2022-11-23T15:54:17;27.77;;;8.50;;
5587;SDS011;2816;49.778;9.986;2022-11-23T15:56:47;29.80;;;7.60;;
5587;SDS011;2816;49.778;9.986;2022-11-23T16:02:05;25.37;;;5.43;;